createdAt,value
2017-07-31T14:39:35.121Z,26.40
2017-07-31T14:42:02.708Z,26.30
2017-07-31T14:44:30.995Z,26.50
2017-07-31T14:46:58.781Z,26.50
2017-07-31T14:49:26.377Z,26.90
2017-07-31T14:51:53.913Z,27.60
2017-07-31T14:54:21.442Z,27.40
2017-07-31T14:56:49.257Z,25.30
2017-07-31T14:59:16.781Z,24.70
2017-07-31T15:01:44.285Z,24.50
2017-07-31T15:04:12.149Z,24.30
2017-07-31T15:06:39.718Z,24.20
2017-07-31T15:12:00.451Z,24.20
2017-07-31T15:14:28.100Z,24.20
2017-07-31T15:16:56.371Z,24.10
2017-07-31T15:19:24.006Z,24.10
2017-07-31T15:21:51.551Z,24.20
2017-07-31T15:24:19.067Z,24.20
2017-07-31T15:26:46.648Z,24.00
2017-07-31T15:29:14.143Z,24.10
2017-07-31T15:31:41.638Z,24.20
2017-07-31T15:34:10.776Z,24.60
2017-07-31T15:36:38.341Z,25.30
2017-07-31T15:39:06.628Z,25.90
2017-07-31T15:41:34.115Z,26.50
2017-07-31T15:44:23.249Z,26.70
2017-07-31T15:46:50.816Z,26.70
2017-07-31T15:49:18.394Z,27.30
2017-07-31T15:51:45.929Z,27.70
2017-07-31T15:54:13.421Z,27.60
2017-07-31T15:56:40.993Z,27.40
2017-07-31T15:59:09.404Z,27.60
2017-07-31T16:01:36.952Z,28.30
2017-07-31T16:04:04.584Z,28.40
2017-07-31T16:06:32.110Z,28.90
2017-07-31T16:09:00.359Z,29.70
2017-07-31T16:11:27.905Z,29.70
2017-07-31T16:13:55.402Z,29.80
2017-07-31T16:16:23.673Z,29.60
2017-07-31T16:18:51.357Z,29.30
2017-07-31T16:21:18.847Z,28.70
2017-07-31T16:23:46.357Z,28.00
2017-07-31T16:26:14.796Z,26.80
2017-07-31T16:31:35.089Z,25.70
2017-07-31T16:39:53.185Z,25.20
2017-07-31T16:42:32.716Z,25.30
2017-07-31T16:53:38.310Z,25.00
2017-07-31T17:13:29.213Z,24.20
2017-07-31T17:15:56.707Z,24.20
2017-07-31T17:18:24.205Z,24.20
2017-07-31T17:20:51.722Z,24.10
2017-07-31T17:23:19.988Z,24.00
2017-07-31T17:25:47.480Z,24.00
2017-07-31T17:31:08.092Z,23.90
2017-07-31T17:33:44.084Z,23.70
2017-07-31T17:36:12.360Z,23.80
2017-07-31T17:38:39.859Z,23.70
2017-07-31T17:41:07.487Z,23.80
2017-07-31T17:43:34.988Z,23.60
2017-07-31T17:48:55.510Z,23.40
2017-07-31T18:00:06.764Z,23.00
2017-07-31T18:02:34.261Z,23.00
2017-07-31T18:05:01.802Z,22.90
2017-07-31T18:07:29.322Z,22.90
2017-07-31T18:09:56.861Z,22.80
2017-07-31T18:12:24.393Z,22.80
2017-07-31T18:14:51.989Z,22.70
2017-07-31T18:17:19.588Z,22.70
2017-07-31T18:19:47.076Z,22.60
2017-07-31T18:22:14.643Z,22.60
2017-07-31T18:27:35.453Z,22.60
2017-07-31T18:30:03.015Z,22.50
2017-07-31T18:32:30.532Z,22.50
2017-07-31T18:34:58.385Z,22.50
2017-07-31T18:37:25.980Z,22.50
2017-07-31T18:39:53.471Z,22.60
2017-07-31T18:42:22.434Z,22.60
2017-07-31T18:44:50.242Z,22.40
2017-07-31T18:47:21.100Z,22.50
2017-07-31T18:52:36.336Z,22.40
2017-07-31T18:55:03.958Z,22.30
2017-07-31T18:57:31.513Z,22.30
2017-07-31T19:00:00.025Z,22.20
2017-07-31T19:02:28.747Z,22.10
2017-07-31T19:05:04.041Z,22.10
2017-07-31T19:13:12.198Z,22.30
2017-07-31T19:21:19.184Z,22.00
2017-07-31T19:23:50.790Z,21.90
2017-07-31T19:26:22.022Z,21.80
2017-07-31T19:29:00.781Z,21.80
2017-07-31T19:34:28.775Z,21.80
2017-07-31T19:39:57.460Z,21.70
2017-07-31T19:42:32.519Z,21.60
2017-07-31T19:48:06.178Z,21.60
2017-07-31T19:50:33.711Z,21.80
2017-07-31T19:53:01.390Z,21.90
2017-07-31T19:55:35.674Z,21.80
2017-07-31T19:58:06.195Z,21.80
2017-07-31T20:03:28.550Z,21.90
2017-07-31T20:09:00.947Z,22.00
2017-07-31T20:17:13.514Z,21.70
2017-07-31T20:19:41.086Z,21.60
2017-07-31T20:22:08.579Z,21.70
2017-07-31T20:27:29.877Z,21.60
2017-07-31T20:30:10.288Z,21.50
2017-07-31T20:32:44.664Z,21.50
2017-07-31T20:35:23.708Z,21.60
2017-07-31T20:44:03.240Z,21.60
2017-07-31T20:46:31.498Z,21.50
2017-07-31T20:51:52.599Z,21.40
2017-07-31T20:54:20.196Z,21.30
2017-07-31T20:56:47.697Z,21.40
2017-07-31T20:59:18.738Z,21.40
2017-07-31T21:01:50.900Z,21.40
2017-07-31T21:04:25.229Z,21.30
2017-07-31T21:06:58.442Z,21.30
2017-07-31T21:12:34.568Z,21.20
2017-07-31T21:15:02.144Z,21.10
2017-07-31T21:17:29.673Z,21.10
2017-07-31T21:19:58.658Z,21.00
2017-07-31T21:31:32.447Z,20.80
2017-07-31T21:51:19.023Z,20.70
2017-07-31T21:53:46.524Z,20.60
2017-07-31T21:56:14.414Z,20.60
2017-07-31T21:58:41.989Z,20.50
2017-07-31T22:01:12.722Z,20.50
2017-07-31T22:03:43.844Z,20.40
2017-07-31T22:06:12.118Z,20.40
2017-07-31T22:08:40.381Z,20.40
2017-07-31T22:14:02.024Z,20.40
2017-07-31T22:22:15.463Z,20.70
2017-07-31T22:25:27.108Z,20.90
2017-07-31T22:27:54.677Z,20.90
2017-07-31T22:30:23.368Z,21.10
2017-07-31T22:32:51.671Z,21.20
2017-07-31T22:35:19.173Z,21.20
2017-07-31T22:37:48.257Z,21.10
2017-07-31T22:40:16.557Z,21.10
2017-07-31T22:42:44.084Z,21.10
2017-07-31T22:45:12.526Z,21.20
2017-07-31T22:47:41.055Z,21.30
2017-07-31T22:50:09.537Z,21.30
2017-07-31T22:52:37.215Z,21.30
2017-07-31T22:55:07.967Z,21.30
2017-07-31T23:03:14.499Z,21.00
2017-07-31T23:08:39.184Z,20.80
2017-07-31T23:11:12.137Z,20.80
2017-07-31T23:13:49.093Z,20.90
2017-07-31T23:16:42.580Z,20.90
2017-07-31T23:19:10.121Z,20.90
2017-07-31T23:21:38.828Z,20.90
2017-07-31T23:24:06.360Z,20.80
2017-07-31T23:26:34.022Z,20.90
2017-07-31T23:29:02.147Z,20.80
2017-07-31T23:31:30.118Z,20.80
2017-07-31T23:33:57.641Z,20.80
2017-07-31T23:36:26.193Z,20.80
2017-07-31T23:38:53.744Z,20.70
2017-07-31T23:41:21.256Z,20.70
2017-07-31T23:43:49.850Z,20.80
2017-07-31T23:52:03.868Z,20.90
2017-07-31T23:54:31.370Z,20.90
2017-07-31T23:56:58.866Z,20.90
2017-07-31T23:59:27.169Z,20.80
